sensor_id;sensor_type;location;lat;lon;timestamp;temperature;humidity
43087;DHT22;28708;52.224;6.924;2022-08-19T00:00:25;18.10;99.90
43087;DHT22;28708;52.224;6.924;2022-08-19T00:02:51;18.10;99.90
43087;DHT22;28708;52.224;6.924;2022-08-19T00:05:17;18.10;99.90
43087;DHT22;28708;52.224;6.924;2022-08-19T00:07:44;18.00;99.90
43087;DHT22;28708;52.224;6.924;2022-08-19T00:10:12;18.00;99.90
43087;DHT22;28708;52.224;6.924;2022-08-19T00:12:38;18.00;99.90
43087;DHT22;28708;52.224;6.924;2022-08-19T00:15:12;18.00;99.90
43087;DHT22;28708;52.224;6.924;2022-08-19T00:17:40;18.00;99.90
43087;DHT22;28708;52.224;6.924;2022-08-19T00:20:08;18.00;99.90
43087;DHT22;28708;52.224;6.924;2022-08-19T00:22:37;17.90;99.90
43087;DHT22;28708;52.224;6.924;2022-08-19T00:25:05;17.90;99.90
43087;DHT22;28708;52.224;6.924;2022-08-19T00:27:31;17.90;99.90
43087;DHT22;28708;52.224;6.924;2022-08-19T00:29:57;18.00;99.90
43087;DHT22;28708;52.224;6.924;2022-08-19T00:32:24;17.90;99.90
43087;DHT22;28708;52.224;6.924;2022-08-19T00:34:51;17.80;99.90
43087;DHT22;28708;52.224;6.924;2022-08-19T00:37:21;17.80;99.90
43087;DHT22;28708;52.224;6.924;2022-08-19T00:39:49;17.80;99.90
43087;DHT22;28708;52.224;6.924;2022-08-19T00:42:17;17.80;99.90
43087;DHT22;28708;52.224;6.924;2022-08-19T00:44:43;17.70;99.90
43087;DHT22;28708;52.224;6.924;2022-08-19T00:47:09;17.70;99.90
43087;DHT22;28708;52.224;6.924;2022-08-19T00:49:43;17.70;99.90
43087;DHT22;28708;52.224;6.924;2022-08-19T00:52:21;17.70;99.90
43087;DHT22;28708;52.224;6.924;2022-08-19T00:54:48;17.60;99.90
43087;DHT22;28708;52.224;6.924;2022-08-19T00:57:17;17.60;99.90
43087;DHT22;28708;52.224;6.924;2022-08-19T00:59:47;17.60;99.90
43087;DHT22;28708;52.224;6.924;2022-08-19T01:02:16;17.60;99.90
43087;DHT22;28708;52.224;6.924;2022-08-19T01:04:42;17.60;99.90
43087;DHT22;28708;52.224;6.924;2022-08-19T01:07:08;17.50;99.90
43087;DHT22;28708;52.224;6.924;2022-08-19T01:09:34;17.50;99.90
43087;DHT22;28708;52.224;6.924;2022-08-19T01:12:00;17.50;99.90
43087;DHT22;28708;52.224;6.924;2022-08-19T01:14:26;17.50;99.90
43087;DHT22;28708;52.224;6.924;2022-08-19T01:16:53;17.50;99.90
43087;DHT22;28708;52.224;6.924;2022-08-19T01:19:33;17.40;99.90
43087;DHT22;28708;52.224;6.924;2022-08-19T01:24:35;17.40;99.90
43087;DHT22;28708;52.224;6.924;2022-08-19T01:27:04;17.40;99.90
43087;DHT22;28708;52.224;6.924;2022-08-19T01:29:30;17.40;99.90
43087;DHT22;28708;52.224;6.924;2022-08-19T01:31:57;17.40;99.90
43087;DHT22;28708;52.224;6.924;2022-08-19T01:34:23;17.30;99.90
43087;DHT22;28708;52.224;6.924;2022-08-19T01:36:49;17.30;99.90
43087;DHT22;28708;52.224;6.924;2022-08-19T01:39:21;17.40;99.90
43087;DHT22;28708;52.224;6.924;2022-08-19T01:41:47;17.40;99.90
43087;DHT22;28708;52.224;6.924;2022-08-19T01:44:14;17.40;99.90
43087;DHT22;28708;52.224;6.924;2022-08-19T01:46:40;17.30;99.90
43087;DHT22;28708;52.224;6.924;2022-08-19T01:49:07;17.30;99.90
43087;DHT22;28708;52.224;6.924;2022-08-19T01:51:33;17.30;99.90
43087;DHT22;28708;52.224;6.924;2022-08-19T01:53:59;17.30;99.90
43087;DHT22;28708;52.224;6.924;2022-08-19T01:56:25;17.20;99.90
43087;DHT22;28708;52.224;6.924;2022-08-19T01:58:55;17.20;99.90
43087;DHT22;28708;52.224;6.924;2022-08-19T02:01:23;17.20;99.90
43087;DHT22;28708;52.224;6.924;2022-08-19T02:03:49;17.10;99.90
43087;DHT22;28708;52.224;6.924;2022-08-19T02:06:15;17.20;99.90
43087;DHT22;28708;52.224;6.924;2022-08-19T02:08:43;17.10;99.90
43087;DHT22;28708;52.224;6.924;2022-08-19T02:11:22;17.10;99.90
43087;DHT22;28708;52.224;6.924;2022-08-19T02:13:49;17.10;99.90
43087;DHT22;28708;52.224;6.924;2022-08-19T02:16:17;17.20;99.90
43087;DHT22;28708;52.224;6.924;2022-08-19T02:18:43;17.10;99.90
43087;DHT22;28708;52.224;6.924;2022-08-19T02:21:09;17.20;99.90
43087;DHT22;28708;52.224;6.924;2022-08-19T02:23:36;17.10;99.90
43087;DHT22;28708;52.224;6.924;2022-08-19T02:26:02;17.10;99.90
43087;DHT22;28708;52.224;6.924;2022-08-19T02:28:28;17.10;99.90
43087;DHT22;28708;52.224;6.924;2022-08-19T02:30:55;17.10;99.90
43087;DHT22;28708;52.224;6.924;2022-08-19T02:33:21;17.10;99.90
43087;DHT22;28708;52.224;6.924;2022-08-19T02:35:46;17.10;99.90
43087;DHT22;28708;52.224;6.924;2022-08-19T02:38:13;17.10;99.90
43087;DHT22;28708;52.224;6.924;2022-08-19T02:40:56;17.10;99.90
43087;DHT22;28708;52.224;6.924;2022-08-19T02:43:23;17.10;99.90
43087;DHT22;28708;52.224;6.924;2022-08-19T02:45:50;17.00;99.90
43087;DHT22;28708;52.224;6.924;2022-08-19T02:48:18;17.10;99.90
43087;DHT22;28708;52.224;6.924;2022-08-19T02:50:45;17.00;99.90
43087;DHT22;28708;52.224;6.924;2022-08-19T02:53:11;17.00;99.90
43087;DHT22;28708;52.224;6.924;2022-08-19T02:55:45;17.00;99.90
43087;DHT22;28708;52.224;6.924;2022-08-19T02:58:12;17.00;99.90
43087;DHT22;28708;52.224;6.924;2022-08-19T03:00:43;17.00;99.90
43087;DHT22;28708;52.224;6.924;2022-08-19T03:03:10;17.00;99.90
43087;DHT22;28708;52.224;6.924;2022-08-19T03:05:36;17.10;99.90
43087;DHT22;28708;52.224;6.924;2022-08-19T03:08:02;17.00;99.90
43087;DHT22;28708;52.224;6.924;2022-08-19T03:10:29;17.00;99.90
43087;DHT22;28708;52.224;6.924;2022-08-19T03:12:54;17.00;99.90
43087;DHT22;28708;52.224;6.924;2022-08-19T03:15:20;17.00;99.90
43087;DHT22;28708;52.224;6.924;2022-08-19T03:17:46;17.00;99.90
43087;DHT22;28708;52.224;6.924;2022-08-19T03:20:12;17.00;99.90
43087;DHT22;28708;52.224;6.924;2022-08-19T03:22:38;17.00;99.90
43087;DHT22;28708;52.224;6.924;2022-08-19T03:25:04;17.00;99.90
43087;DHT22;28708;52.224;6.924;2022-08-19T03:27:29;17.00;99.90
43087;DHT22;28708;52.224;6.924;2022-08-19T03:29:56;17.00;99.90
43087;DHT22;28708;52.224;6.924;2022-08-19T03:32:22;17.00;99.90
43087;DHT22;28708;52.224;6.924;2022-08-19T03:34:48;16.90;99.90
43087;DHT22;28708;52.224;6.924;2022-08-19T03:37:14;16.90;99.90
43087;DHT22;28708;52.224;6.924;2022-08-19T03:39:41;16.90;99.90
43087;DHT22;28708;52.224;6.924;2022-08-19T03:42:09;16.90;99.90
43087;DHT22;28708;52.224;6.924;2022-08-19T03:44:35;16.80;99.90
43087;DHT22;28708;52.224;6.924;2022-08-19T03:47:03;16.80;99.90
43087;DHT22;28708;52.224;6.924;2022-08-19T03:49:31;16.80;99.90
43087;DHT22;28708;52.224;6.924;2022-08-19T03:51:59;16.80;99.90
43087;DHT22;28708;52.224;6.924;2022-08-19T03:54:28;16.70;99.90
43087;DHT22;28708;52.224;6.924;2022-08-19T03:56:55;16.70;99.90
43087;DHT22;28708;52.224;6.924;2022-08-19T03:59:31;16.80;99.90
43087;DHT22;28708;52.224;6.924;2022-08-19T04:02:00;16.90;99.90
43087;DHT22;28708;52.224;6.924;2022-08-19T04:04:26;16.90;99.90
43087;DHT22;28708;52.224;6.924;2022-08-19T04:06:52;16.80;99.90
43087;DHT22;28708;52.224;6.924;2022-08-19T04:09:18;16.90;99.90
43087;DHT22;28708;52.224;6.924;2022-08-19T04:11:53;16.90;99.90
43087;DHT22;28708;52.224;6.924;2022-08-19T04:14:24;16.90;99.90
43087;DHT22;28708;52.224;6.924;2022-08-19T04:16:51;16.90;99.90
43087;DHT22;28708;52.224;6.924;2022-08-19T04:19:18;17.00;99.90
43087;DHT22;28708;52.224;6.924;2022-08-19T04:21:46;17.00;99.90
43087;DHT22;28708;52.224;6.924;2022-08-19T04:24:13;17.00;99.90
43087;DHT22;28708;52.224;6.924;2022-08-19T04:26:40;17.00;99.90
43087;DHT22;28708;52.224;6.924;2022-08-19T04:29:12;16.90;99.90
43087;DHT22;28708;52.224;6.924;2022-08-19T04:31:39;17.00;99.90
43087;DHT22;28708;52.224;6.924;2022-08-19T04:34:08;17.10;99.90
43087;DHT22;28708;52.224;6.924;2022-08-19T04:36:37;17.10;99.90
43087;DHT22;28708;52.224;6.924;2022-08-19T04:39:07;16.90;99.90
43087;DHT22;28708;52.224;6.924;2022-08-19T04:41:33;16.90;99.90
43087;DHT22;28708;52.224;6.924;2022-08-19T04:44:17;16.80;99.90
43087;DHT22;28708;52.224;6.924;2022-08-19T04:46:47;16.80;99.90
43087;DHT22;28708;52.224;6.924;2022-08-19T04:49:15;16.80;99.90
43087;DHT22;28708;52.224;6.924;2022-08-19T04:51:44;16.90;99.90
43087;DHT22;28708;52.224;6.924;2022-08-19T04:54:11;16.90;99.90
43087;DHT22;28708;52.224;6.924;2022-08-19T04:56:39;16.90;99.90
43087;DHT22;28708;52.224;6.924;2022-08-19T04:59:06;16.90;99.90
43087;DHT22;28708;52.224;6.924;2022-08-19T05:01:33;16.90;99.90
43087;DHT22;28708;52.224;6.924;2022-08-19T05:04:02;17.00;99.90
43087;DHT22;28708;52.224;6.924;2022-08-19T05:06:31;17.00;99.90
43087;DHT22;28708;52.224;6.924;2022-08-19T05:09:05;17.00;99.90
43087;DHT22;28708;52.224;6.924;2022-08-19T05:11:35;17.10;99.90
43087;DHT22;28708;52.224;6.924;2022-08-19T05:14:01;17.10;99.90
43087;DHT22;28708;52.224;6.924;2022-08-19T05:16:27;17.20;99.90
43087;DHT22;28708;52.224;6.924;2022-08-19T05:18:54;17.20;99.90
43087;DHT22;28708;52.224;6.924;2022-08-19T05:21:40;17.10;99.90
43087;DHT22;28708;52.224;6.924;2022-08-19T05:24:25;17.20;99.90
43087;DHT22;28708;52.224;6.924;2022-08-19T05:26:53;17.30;99.90
43087;DHT22;28708;52.224;6.924;2022-08-19T05:29:22;17.30;99.90
43087;DHT22;28708;52.224;6.924;2022-08-19T05:31:48;17.40;99.90
43087;DHT22;28708;52.224;6.924;2022-08-19T05:34:16;17.50;99.90
43087;DHT22;28708;52.224;6.924;2022-08-19T05:36:44;17.60;99.90
43087;DHT22;28708;52.224;6.924;2022-08-19T05:39:17;17.60;99.90
43087;DHT22;28708;52.224;6.924;2022-08-19T05:41:49;17.70;99.90
43087;DHT22;28708;52.224;6.924;2022-08-19T05:44:17;17.70;99.90
43087;DHT22;28708;52.224;6.924;2022-08-19T05:46:43;17.80;99.90
43087;DHT22;28708;52.224;6.924;2022-08-19T05:49:13;18.00;99.90
43087;DHT22;28708;52.224;6.924;2022-08-19T05:51:39;18.10;99.90
43087;DHT22;28708;52.224;6.924;2022-08-19T05:54:06;18.20;99.90
43087;DHT22;28708;52.224;6.924;2022-08-19T05:56:34;18.20;99.90
43087;DHT22;28708;52.224;6.924;2022-08-19T05:59:04;18.10;99.90
43087;DHT22;28708;52.224;6.924;2022-08-19T06:01:35;18.00;99.90
43087;DHT22;28708;52.224;6.924;2022-08-19T06:04:03;18.10;99.90
43087;DHT22;28708;52.224;6.924;2022-08-19T06:06:29;18.00;99.90
43087;DHT22;28708;52.224;6.924;2022-08-19T06:08:55;18.00;99.90
43087;DHT22;28708;52.224;6.924;2022-08-19T06:11:23;18.00;99.90
43087;DHT22;28708;52.224;6.924;2022-08-19T06:13:52;17.90;99.90
43087;DHT22;28708;52.224;6.924;2022-08-19T06:16:19;17.90;99.90
43087;DHT22;28708;52.224;6.924;2022-08-19T06:18:51;17.90;99.90
43087;DHT22;28708;52.224;6.924;2022-08-19T06:21:24;18.00;99.90
43087;DHT22;28708;52.224;6.924;2022-08-19T06:23:50;18.00;99.90
43087;DHT22;28708;52.224;6.924;2022-08-19T06:26:19;18.10;99.90
43087;DHT22;28708;52.224;6.924;2022-08-19T06:28:46;18.10;99.90
43087;DHT22;28708;52.224;6.924;2022-08-19T06:31:14;18.10;99.90
43087;DHT22;28708;52.224;6.924;2022-08-19T06:33:42;18.10;99.90
43087;DHT22;28708;52.224;6.924;2022-08-19T06:36:23;18.00;99.90
43087;DHT22;28708;52.224;6.924;2022-08-19T06:39:01;18.10;99.90
43087;DHT22;28708;52.224;6.924;2022-08-19T06:41:28;18.00;99.90
43087;DHT22;28708;52.224;6.924;2022-08-19T06:43:55;18.10;99.90
43087;DHT22;28708;52.224;6.924;2022-08-19T06:46:21;18.10;99.90
43087;DHT22;28708;52.224;6.924;2022-08-19T06:48:47;18.10;99.90
43087;DHT22;28708;52.224;6.924;2022-08-19T06:51:17;18.00;99.90
43087;DHT22;28708;52.224;6.924;2022-08-19T06:53:47;18.10;99.90
43087;DHT22;28708;52.224;6.924;2022-08-19T06:56:17;18.20;99.90
43087;DHT22;28708;52.224;6.924;2022-08-19T06:58:43;18.30;99.90
43087;DHT22;28708;52.224;6.924;2022-08-19T07:01:09;18.30;99.90
43087;DHT22;28708;52.224;6.924;2022-08-19T07:03:36;18.40;99.90
43087;DHT22;28708;52.224;6.924;2022-08-19T07:08:30;18.60;99.90
43087;DHT22;28708;52.224;6.924;2022-08-19T07:10:56;18.70;99.90
43087;DHT22;28708;52.224;6.924;2022-08-19T07:13:22;18.80;99.90
43087;DHT22;28708;52.224;6.924;2022-08-19T07:15:48;19.00;99.90
43087;DHT22;28708;52.224;6.924;2022-08-19T07:18:17;19.20;99.90
43087;DHT22;28708;52.224;6.924;2022-08-19T07:20:43;19.30;99.90
43087;DHT22;28708;52.224;6.924;2022-08-19T07:23:09;19.40;99.90
43087;DHT22;28708;52.224;6.924;2022-08-19T07:25:37;19.40;99.90
43087;DHT22;28708;52.224;6.924;2022-08-19T07:28:03;19.50;99.90
43087;DHT22;28708;52.224;6.924;2022-08-19T07:30:30;19.70;99.90
43087;DHT22;28708;52.224;6.924;2022-08-19T07:32:56;19.90;99.90
43087;DHT22;28708;52.224;6.924;2022-08-19T07:35:22;19.90;99.90
43087;DHT22;28708;52.224;6.924;2022-08-19T07:37:49;20.00;99.90
43087;DHT22;28708;52.224;6.924;2022-08-19T07:40:15;20.20;99.90
43087;DHT22;28708;52.224;6.924;2022-08-19T07:42:41;20.30;99.90
43087;DHT22;28708;52.224;6.924;2022-08-19T07:45:08;20.30;99.90
43087;DHT22;28708;52.224;6.924;2022-08-19T07:47:35;20.40;99.90
43087;DHT22;28708;52.224;6.924;2022-08-19T07:50:02;20.60;99.90
43087;DHT22;28708;52.224;6.924;2022-08-19T07:52:29;20.70;99.90
43087;DHT22;28708;52.224;6.924;2022-08-19T07:54:55;21.00;99.90
43087;DHT22;28708;52.224;6.924;2022-08-19T07:57:21;21.20;99.90
43087;DHT22;28708;52.224;6.924;2022-08-19T07:59:47;21.30;99.90
43087;DHT22;28708;52.224;6.924;2022-08-19T08:02:13;21.50;99.90
43087;DHT22;28708;52.224;6.924;2022-08-19T08:04:39;21.60;99.90
43087;DHT22;28708;52.224;6.924;2022-08-19T08:07:23;21.60;99.90
43087;DHT22;28708;52.224;6.924;2022-08-19T08:10:09;21.70;99.90
43087;DHT22;28708;52.224;6.924;2022-08-19T08:12:38;21.80;99.90
43087;DHT22;28708;52.224;6.924;2022-08-19T08:15:13;22.00;99.90
43087;DHT22;28708;52.224;6.924;2022-08-19T08:17:44;22.10;99.90
43087;DHT22;28708;52.224;6.924;2022-08-19T08:20:11;22.10;99.90
43087;DHT22;28708;52.224;6.924;2022-08-19T08:22:43;22.30;99.90
43087;DHT22;28708;52.224;6.924;2022-08-19T08:25:28;22.50;99.90
43087;DHT22;28708;52.224;6.924;2022-08-19T08:27:53;22.60;99.90
43087;DHT22;28708;52.224;6.924;2022-08-19T08:30:24;22.80;99.90
43087;DHT22;28708;52.224;6.924;2022-08-19T08:32:51;22.80;99.90
43087;DHT22;28708;52.224;6.924;2022-08-19T08:35:20;22.90;99.90
43087;DHT22;28708;52.224;6.924;2022-08-19T08:37:47;22.80;99.90
43087;DHT22;28708;52.224;6.924;2022-08-19T08:48:35;23.30;99.90
43087;DHT22;28708;52.224;6.924;2022-08-19T08:51:05;23.40;99.90
43087;DHT22;28708;52.224;6.924;2022-08-19T08:53:34;23.70;99.90
43087;DHT22;28708;52.224;6.924;2022-08-19T08:56:03;23.60;99.90
43087;DHT22;28708;52.224;6.924;2022-08-19T08:58:39;23.60;99.90
43087;DHT22;28708;52.224;6.924;2022-08-19T09:01:10;23.70;99.90
43087;DHT22;28708;52.224;6.924;2022-08-19T09:03:37;23.90;99.90
43087;DHT22;28708;52.224;6.924;2022-08-19T09:06:17;24.00;99.90
43087;DHT22;28708;52.224;6.924;2022-08-19T09:11:47;25.00;99.90
43087;DHT22;28708;52.224;6.924;2022-08-19T09:14:53;26.70;99.90
43087;DHT22;28708;52.224;6.924;2022-08-19T09:17:24;27.70;99.90
43087;DHT22;28708;52.224;6.924;2022-08-19T09:22:22;28.60;99.90
43087;DHT22;28708;52.224;6.924;2022-08-19T09:24:49;27.90;99.90
43087;DHT22;28708;52.224;6.924;2022-08-19T09:27:18;27.50;99.90
43087;DHT22;28708;52.224;6.924;2022-08-19T09:29:45;28.00;99.90
43087;DHT22;28708;52.224;6.924;2022-08-19T09:32:13;28.50;99.90
43087;DHT22;28708;52.224;6.924;2022-08-19T09:34:39;29.20;99.90
43087;DHT22;28708;52.224;6.924;2022-08-19T09:37:04;30.00;99.90
43087;DHT22;28708;52.224;6.924;2022-08-19T09:39:31;30.10;99.90
43087;DHT22;28708;52.224;6.924;2022-08-19T09:41:56;30.80;99.90
43087;DHT22;28708;52.224;6.924;2022-08-19T09:44:22;31.10;99.90
43087;DHT22;28708;52.224;6.924;2022-08-19T09:46:48;30.50;99.90
43087;DHT22;28708;52.224;6.924;2022-08-19T09:49:16;30.70;99.90
43087;DHT22;28708;52.224;6.924;2022-08-19T09:51:43;31.70;99.90
43087;DHT22;28708;52.224;6.924;2022-08-19T09:54:08;31.90;99.90
43087;DHT22;28708;52.224;6.924;2022-08-19T09:56:34;32.30;99.20
43087;DHT22;28708;52.224;6.924;2022-08-19T09:59:02;30.90;99.00
43087;DHT22;28708;52.224;6.924;2022-08-19T10:01:30;30.00;99.90
43087;DHT22;28708;52.224;6.924;2022-08-19T10:03:58;30.90;99.90
43087;DHT22;28708;52.224;6.924;2022-08-19T10:06:26;31.20;99.80
43087;DHT22;28708;52.224;6.924;2022-08-19T10:08:55;30.00;99.90
43087;DHT22;28708;52.224;6.924;2022-08-19T10:11:21;30.00;99.90
43087;DHT22;28708;52.224;6.924;2022-08-19T10:13:48;31.20;99.90
43087;DHT22;28708;52.224;6.924;2022-08-19T10:16:17;32.00;97.70
43087;DHT22;28708;52.224;6.924;2022-08-19T10:18:43;31.00;99.00
43087;DHT22;28708;52.224;6.924;2022-08-19T10:21:19;30.50;99.40
43087;DHT22;28708;52.224;6.924;2022-08-19T10:23:48;30.00;99.90
43087;DHT22;28708;52.224;6.924;2022-08-19T10:26:20;30.20;98.80
43087;DHT22;28708;52.224;6.924;2022-08-19T10:28:47;29.50;99.10
43087;DHT22;28708;52.224;6.924;2022-08-19T10:31:19;29.90;99.10
43087;DHT22;28708;52.224;6.924;2022-08-19T10:33:49;30.50;98.50
43087;DHT22;28708;52.224;6.924;2022-08-19T10:36:18;31.20;98.10
43087;DHT22;28708;52.224;6.924;2022-08-19T10:38:46;30.90;97.80
43087;DHT22;28708;52.224;6.924;2022-08-19T10:41:16;30.20;98.30
43087;DHT22;28708;52.224;6.924;2022-08-19T10:43:43;31.00;97.00
43087;DHT22;28708;52.224;6.924;2022-08-19T10:46:14;30.60;97.20
43087;DHT22;28708;52.224;6.924;2022-08-19T10:48:42;31.20;97.40
43087;DHT22;28708;52.224;6.924;2022-08-19T10:51:09;31.80;97.20
43087;DHT22;28708;52.224;6.924;2022-08-19T10:53:54;32.30;95.90
43087;DHT22;28708;52.224;6.924;2022-08-19T10:56:22;31.70;95.90
43087;DHT22;28708;52.224;6.924;2022-08-19T10:59:07;30.80;96.40
43087;DHT22;28708;52.224;6.924;2022-08-19T11:01:33;28.80;99.90
43087;DHT22;28708;52.224;6.924;2022-08-19T11:04:01;27.70;99.90
43087;DHT22;28708;52.224;6.924;2022-08-19T11:06:28;27.20;99.90
43087;DHT22;28708;52.224;6.924;2022-08-19T11:08:54;26.80;99.90
43087;DHT22;28708;52.224;6.924;2022-08-19T11:11:21;26.70;99.90
43087;DHT22;28708;52.224;6.924;2022-08-19T11:13:47;26.40;99.90
43087;DHT22;28708;52.224;6.924;2022-08-19T11:16:18;26.30;99.90
43087;DHT22;28708;52.224;6.924;2022-08-19T11:18:49;26.30;99.90
43087;DHT22;28708;52.224;6.924;2022-08-19T11:21:18;27.60;99.90
43087;DHT22;28708;52.224;6.924;2022-08-19T11:23:46;29.50;99.90
43087;DHT22;28708;52.224;6.924;2022-08-19T11:26:13;30.30;99.30
43087;DHT22;28708;52.224;6.924;2022-08-19T11:28:39;30.00;99.60
43087;DHT22;28708;52.224;6.924;2022-08-19T11:31:10;28.30;99.90
43087;DHT22;28708;52.224;6.924;2022-08-19T11:33:37;27.00;99.90
43087;DHT22;28708;52.224;6.924;2022-08-19T11:36:03;26.30;99.90
43087;DHT22;28708;52.224;6.924;2022-08-19T11:38:29;26.20;99.90
43087;DHT22;28708;52.224;6.924;2022-08-19T11:41:01;26.20;99.90
43087;DHT22;28708;52.224;6.924;2022-08-19T11:43:28;27.10;99.90
43087;DHT22;28708;52.224;6.924;2022-08-19T11:45:55;27.60;99.90
43087;DHT22;28708;52.224;6.924;2022-08-19T11:48:21;27.70;99.90
43087;DHT22;28708;52.224;6.924;2022-08-19T11:50:52;27.40;99.90
43087;DHT22;28708;52.224;6.924;2022-08-19T11:53:21;27.30;99.90
43087;DHT22;28708;52.224;6.924;2022-08-19T11:55:48;27.40;99.90
43087;DHT22;28708;52.224;6.924;2022-08-19T11:58:15;27.50;99.90
43087;DHT22;28708;52.224;6.924;2022-08-19T12:00:41;27.50;99.90
43087;DHT22;28708;52.224;6.924;2022-08-19T12:03:08;27.10;99.90
43087;DHT22;28708;52.224;6.924;2022-08-19T12:05:36;26.80;99.90
43087;DHT22;28708;52.224;6.924;2022-08-19T12:08:02;26.60;99.90
43087;DHT22;28708;52.224;6.924;2022-08-19T12:10:28;26.40;99.90
43087;DHT22;28708;52.224;6.924;2022-08-19T12:12:54;26.30;99.90
43087;DHT22;28708;52.224;6.924;2022-08-19T12:15:19;26.20;99.90
43087;DHT22;28708;52.224;6.924;2022-08-19T12:17:45;26.10;99.90
43087;DHT22;28708;52.224;6.924;2022-08-19T12:20:12;26.00;99.90
43087;DHT22;28708;52.224;6.924;2022-08-19T12:22:42;25.90;99.90
43087;DHT22;28708;52.224;6.924;2022-08-19T12:25:10;25.90;99.90
43087;DHT22;28708;52.224;6.924;2022-08-19T12:27:37;26.30;99.90
43087;DHT22;28708;52.224;6.924;2022-08-19T12:30:05;26.50;99.90
43087;DHT22;28708;52.224;6.924;2022-08-19T12:32:31;26.80;99.90
43087;DHT22;28708;52.224;6.924;2022-08-19T12:34:57;27.10;99.90
43087;DHT22;28708;52.224;6.924;2022-08-19T12:37:23;27.30;99.90
43087;DHT22;28708;52.224;6.924;2022-08-19T12:39:48;27.60;99.90
43087;DHT22;28708;52.224;6.924;2022-08-19T12:42:15;27.80;99.00
43087;DHT22;28708;52.224;6.924;2022-08-19T12:44:42;27.90;98.50
43087;DHT22;28708;52.224;6.924;2022-08-19T12:47:10;27.80;99.70
43087;DHT22;28708;52.224;6.924;2022-08-19T12:49:37;27.70;98.00
43087;DHT22;28708;52.224;6.924;2022-08-19T12:52:05;27.60;98.50
43087;DHT22;28708;52.224;6.924;2022-08-19T12:54:34;28.00;97.80
43087;DHT22;28708;52.224;6.924;2022-08-19T12:57:00;27.80;97.60
43087;DHT22;28708;52.224;6.924;2022-08-19T12:59:26;27.60;98.10
43087;DHT22;28708;52.224;6.924;2022-08-19T13:01:52;27.80;98.50
43087;DHT22;28708;52.224;6.924;2022-08-19T13:04:18;27.80;96.80
43087;DHT22;28708;52.224;6.924;2022-08-19T13:06:44;28.00;96.20
43087;DHT22;28708;52.224;6.924;2022-08-19T13:09:10;28.10;96.40
43087;DHT22;28708;52.224;6.924;2022-08-19T13:11:37;28.20;96.50
43087;DHT22;28708;52.224;6.924;2022-08-19T13:14:03;28.20;96.10
43087;DHT22;28708;52.224;6.924;2022-08-19T13:16:30;28.10;95.50
43087;DHT22;28708;52.224;6.924;2022-08-19T13:18:57;28.20;95.70
43087;DHT22;28708;52.224;6.924;2022-08-19T13:21:25;28.10;95.90
43087;DHT22;28708;52.224;6.924;2022-08-19T13:23:51;28.30;95.50
43087;DHT22;28708;52.224;6.924;2022-08-19T13:26:17;28.60;95.40
43087;DHT22;28708;52.224;6.924;2022-08-19T13:28:44;28.60;95.60
43087;DHT22;28708;52.224;6.924;2022-08-19T13:31:32;28.80;94.90
43087;DHT22;28708;52.224;6.924;2022-08-19T13:34:18;29.00;94.80
43087;DHT22;28708;52.224;6.924;2022-08-19T13:36:46;29.00;94.20
43087;DHT22;28708;52.224;6.924;2022-08-19T13:39:12;29.00;94.00
43087;DHT22;28708;52.224;6.924;2022-08-19T13:41:45;29.20;94.30
43087;DHT22;28708;52.224;6.924;2022-08-19T13:44:17;29.30;93.20
43087;DHT22;28708;52.224;6.924;2022-08-19T13:46:48;28.90;93.20
43087;DHT22;28708;52.224;6.924;2022-08-19T13:49:16;29.00;93.00
43087;DHT22;28708;52.224;6.924;2022-08-19T13:51:43;29.20;93.10
43087;DHT22;28708;52.224;6.924;2022-08-19T13:54:10;29.20;92.80
43087;DHT22;28708;52.224;6.924;2022-08-19T13:56:41;29.30;93.10
43087;DHT22;28708;52.224;6.924;2022-08-19T13:59:07;28.80;94.40
43087;DHT22;28708;52.224;6.924;2022-08-19T14:01:33;29.00;94.50
43087;DHT22;28708;52.224;6.924;2022-08-19T14:03:59;29.30;94.30
43087;DHT22;28708;52.224;6.924;2022-08-19T14:06:25;29.00;94.70
43087;DHT22;28708;52.224;6.924;2022-08-19T14:08:51;29.20;94.90
43087;DHT22;28708;52.224;6.924;2022-08-19T14:11:18;29.30;94.80
43087;DHT22;28708;52.224;6.924;2022-08-19T14:13:44;29.40;94.60
43087;DHT22;28708;52.224;6.924;2022-08-19T14:16:11;29.50;94.30
43087;DHT22;28708;52.224;6.924;2022-08-19T14:18:38;29.40;93.90
43087;DHT22;28708;52.224;6.924;2022-08-19T14:21:05;29.40;94.30
43087;DHT22;28708;52.224;6.924;2022-08-19T14:23:32;29.50;94.30
43087;DHT22;28708;52.224;6.924;2022-08-19T14:26:12;29.70;93.70
43087;DHT22;28708;52.224;6.924;2022-08-19T14:28:39;29.40;93.40
43087;DHT22;28708;52.224;6.924;2022-08-19T14:31:10;29.30;93.80
43087;DHT22;28708;52.224;6.924;2022-08-19T14:33:36;29.40;93.40
43087;DHT22;28708;52.224;6.924;2022-08-19T14:36:03;29.60;93.50
43087;DHT22;28708;52.224;6.924;2022-08-19T14:38:29;29.90;93.40
43087;DHT22;28708;52.224;6.924;2022-08-19T14:41:18;29.90;93.40
43087;DHT22;28708;52.224;6.924;2022-08-19T14:43:46;29.60;93.50
43087;DHT22;28708;52.224;6.924;2022-08-19T14:46:15;29.30;93.70
43087;DHT22;28708;52.224;6.924;2022-08-19T14:48:42;29.30;93.30
43087;DHT22;28708;52.224;6.924;2022-08-19T14:51:09;29.20;93.40
43087;DHT22;28708;52.224;6.924;2022-08-19T14:53:35;29.50;93.60
43087;DHT22;28708;52.224;6.924;2022-08-19T14:56:01;29.80;93.70
43087;DHT22;28708;52.224;6.924;2022-08-19T14:58:32;30.00;92.40
43087;DHT22;28708;52.224;6.924;2022-08-19T15:00:58;30.30;92.70
43087;DHT22;28708;52.224;6.924;2022-08-19T15:03:25;30.00;92.90
43087;DHT22;28708;52.224;6.924;2022-08-19T15:05:51;30.30;93.70
43087;DHT22;28708;52.224;6.924;2022-08-19T15:08:17;30.20;93.20
43087;DHT22;28708;52.224;6.924;2022-08-19T15:10:43;29.80;92.60
43087;DHT22;28708;52.224;6.924;2022-08-19T15:13:08;29.70;92.90
43087;DHT22;28708;52.224;6.924;2022-08-19T15:15:35;29.50;93.70
43087;DHT22;28708;52.224;6.924;2022-08-19T15:18:00;29.40;93.30
43087;DHT22;28708;52.224;6.924;2022-08-19T15:20:28;29.20;92.90
43087;DHT22;28708;52.224;6.924;2022-08-19T15:22:54;29.20;93.10
43087;DHT22;28708;52.224;6.924;2022-08-19T15:25:21;29.10;92.60
43087;DHT22;28708;52.224;6.924;2022-08-19T15:27:47;29.00;93.00
43087;DHT22;28708;52.224;6.924;2022-08-19T15:30:20;29.20;93.00
43087;DHT22;28708;52.224;6.924;2022-08-19T15:32:47;29.40;92.50
43087;DHT22;28708;52.224;6.924;2022-08-19T15:35:13;29.20;92.80
43087;DHT22;28708;52.224;6.924;2022-08-19T15:37:39;28.60;92.20
43087;DHT22;28708;52.224;6.924;2022-08-19T15:40:06;28.30;92.80
43087;DHT22;28708;52.224;6.924;2022-08-19T15:42:37;28.70;92.50
43087;DHT22;28708;52.224;6.924;2022-08-19T15:45:08;28.90;92.20
43087;DHT22;28708;52.224;6.924;2022-08-19T15:47:35;29.00;92.30
43087;DHT22;28708;52.224;6.924;2022-08-19T15:50:17;29.10;91.60
43087;DHT22;28708;52.224;6.924;2022-08-19T15:52:53;29.00;91.00
43087;DHT22;28708;52.224;6.924;2022-08-19T15:55:28;28.90;92.00